sensor_id;sensor_type;location;lat;lon;timestamp;temperature;humidity
7341;DHT22;6870;50.944;6.932;2023-04-25T00:00:29;20.60;33.20
7341;DHT22;6870;50.944;6.932;2023-04-25T00:02:57;20.40;33.00
7341;DHT22;6870;50.944;6.932;2023-04-25T00:05:26;20.20;33.00
7341;DHT22;6870;50.944;6.932;2023-04-25T00:07:57;20.30;33.00
7341;DHT22;6870;50.944;6.932;2023-04-25T00:10:25;20.60;33.40
7341;DHT22;6870;50.944;6.932;2023-04-25T00:12:53;20.30;32.40
7341;DHT22;6870;50.944;6.932;2023-04-25T00:15:22;20.30;33.00
7341;DHT22;6870;50.944;6.932;2023-04-25T00:17:52;20.40;33.10
7341;DHT22;6870;50.944;6.932;2023-04-25T00:20:20;20.40;33.20
7341;DHT22;6870;50.944;6.932;2023-04-25T00:22:50;20.50;33.40
7341;DHT22;6870;50.944;6.932;2023-04-25T00:25:19;20.40;33.20
7341;DHT22;6870;50.944;6.932;2023-04-25T00:27:47;20.40;33.20
7341;DHT22;6870;50.944;6.932;2023-04-25T00:30:16;20.50;33.20
7341;DHT22;6870;50.944;6.932;2023-04-25T00:32:44;20.20;33.20
7341;DHT22;6870;50.944;6.932;2023-04-25T00:35:14;20.60;33.50
7341;DHT22;6870;50.944;6.932;2023-04-25T00:37:42;20.20;33.20
7341;DHT22;6870;50.944;6.932;2023-04-25T00:40:10;20.40;33.50
7341;DHT22;6870;50.944;6.932;2023-04-25T00:42:39;20.30;33.30
7341;DHT22;6870;50.944;6.932;2023-04-25T00:45:12;20.20;33.30
7341;DHT22;6870;50.944;6.932;2023-04-25T00:47:41;20.50;33.60
7341;DHT22;6870;50.944;6.932;2023-04-25T00:50:10;20.50;33.70
7341;DHT22;6870;50.944;6.932;2023-04-25T00:52:43;20.30;33.60
7341;DHT22;6870;50.944;6.932;2023-04-25T00:55:12;20.30;33.60
7341;DHT22;6870;50.944;6.932;2023-04-25T00:57:42;20.20;33.50
7341;DHT22;6870;50.944;6.932;2023-04-25T01:00:11;20.50;33.80
7341;DHT22;6870;50.944;6.932;2023-04-25T01:02:40;20.60;34.00
7341;DHT22;6870;50.944;6.932;2023-04-25T01:05:09;20.30;33.70
7341;DHT22;6870;50.944;6.932;2023-04-25T01:07:37;20.20;33.60
7341;DHT22;6870;50.944;6.932;2023-04-25T01:10:08;20.30;33.70
7341;DHT22;6870;50.944;6.932;2023-04-25T01:12:37;20.20;33.60
7341;DHT22;6870;50.944;6.932;2023-04-25T01:15:06;20.30;33.80
7341;DHT22;6870;50.944;6.932;2023-04-25T01:17:34;20.20;33.80
7341;DHT22;6870;50.944;6.932;2023-04-25T01:20:05;20.30;33.90
7341;DHT22;6870;50.944;6.932;2023-04-25T01:22:37;20.10;33.80
7341;DHT22;6870;50.944;6.932;2023-04-25T01:25:07;20.50;34.10
7341;DHT22;6870;50.944;6.932;2023-04-25T01:27:36;20.60;34.20
7341;DHT22;6870;50.944;6.932;2023-04-25T01:30:05;20.30;33.90
7341;DHT22;6870;50.944;6.932;2023-04-25T01:32:36;20.50;34.20
7341;DHT22;6870;50.944;6.932;2023-04-25T01:35:06;20.40;34.20
7341;DHT22;6870;50.944;6.932;2023-04-25T01:37:38;20.20;33.90
7341;DHT22;6870;50.944;6.932;2023-04-25T01:40:07;20.30;34.10
7341;DHT22;6870;50.944;6.932;2023-04-25T01:42:38;20.20;34.10
7341;DHT22;6870;50.944;6.932;2023-04-25T01:45:09;20.20;34.00
7341;DHT22;6870;50.944;6.932;2023-04-25T01:47:38;20.30;34.20
7341;DHT22;6870;50.944;6.932;2023-04-25T01:50:09;20.40;34.30
7341;DHT22;6870;50.944;6.932;2023-04-25T01:52:39;20.00;34.00
7341;DHT22;6870;50.944;6.932;2023-04-25T01:55:08;20.10;34.10
7341;DHT22;6870;50.944;6.932;2023-04-25T01:57:37;20.30;34.20
7341;DHT22;6870;50.944;6.932;2023-04-25T02:00:06;20.30;34.20
7341;DHT22;6870;50.944;6.932;2023-04-25T02:02:35;20.30;34.20
7341;DHT22;6870;50.944;6.932;2023-04-25T02:05:05;20.00;34.00
7341;DHT22;6870;50.944;6.932;2023-04-25T02:07:34;20.20;34.20
7341;DHT22;6870;50.944;6.932;2023-04-25T02:10:04;20.20;34.20
7341;DHT22;6870;50.944;6.932;2023-04-25T02:12:33;20.10;34.10
7341;DHT22;6870;50.944;6.932;2023-04-25T02:15:01;20.00;33.10
7341;DHT22;6870;50.944;6.932;2023-04-25T02:17:30;20.30;34.40
7341;DHT22;6870;50.944;6.932;2023-04-25T02:19:58;20.20;34.30
7341;DHT22;6870;50.944;6.932;2023-04-25T02:22:26;20.40;34.20
7341;DHT22;6870;50.944;6.932;2023-04-25T02:24:56;19.90;34.40
7341;DHT22;6870;50.944;6.932;2023-04-25T02:27:26;20.20;34.80
7341;DHT22;6870;50.944;6.932;2023-04-25T02:29:54;20.40;35.00
7341;DHT22;6870;50.944;6.932;2023-04-25T02:32:23;20.20;35.00
7341;DHT22;6870;50.944;6.932;2023-04-25T02:34:51;20.30;35.10
7341;DHT22;6870;50.944;6.932;2023-04-25T02:37:19;19.80;34.70
7341;DHT22;6870;50.944;6.932;2023-04-25T02:39:48;20.10;35.00
7341;DHT22;6870;50.944;6.932;2023-04-25T02:42:16;20.10;35.00
7341;DHT22;6870;50.944;6.932;2023-04-25T02:44:45;19.90;34.40
7341;DHT22;6870;50.944;6.932;2023-04-25T02:47:14;19.80;34.90
7341;DHT22;6870;50.944;6.932;2023-04-25T02:49:42;20.50;35.60
7341;DHT22;6870;50.944;6.932;2023-04-25T02:52:10;20.20;35.20
7341;DHT22;6870;50.944;6.932;2023-04-25T02:54:40;20.30;35.40
7341;DHT22;6870;50.944;6.932;2023-04-25T02:57:08;20.20;35.20
7341;DHT22;6870;50.944;6.932;2023-04-25T02:59:36;19.90;34.90
7341;DHT22;6870;50.944;6.932;2023-04-25T03:02:06;19.90;34.90
7341;DHT22;6870;50.944;6.932;2023-04-25T03:04:34;20.10;35.20
7341;DHT22;6870;50.944;6.932;2023-04-25T03:07:02;20.00;35.00
7341;DHT22;6870;50.944;6.932;2023-04-25T03:09:31;19.80;34.80
7341;DHT22;6870;50.944;6.932;2023-04-25T03:11:59;20.10;35.20
7341;DHT22;6870;50.944;6.932;2023-04-25T03:14:28;19.90;35.10
7341;DHT22;6870;50.944;6.932;2023-04-25T03:16:56;20.10;35.30
7341;DHT22;6870;50.944;6.932;2023-04-25T03:19:26;20.00;35.20
7341;DHT22;6870;50.944;6.932;2023-04-25T03:21:54;20.10;35.30
7341;DHT22;6870;50.944;6.932;2023-04-25T03:24:22;19.70;34.90
7341;DHT22;6870;50.944;6.932;2023-04-25T03:26:50;20.30;35.50
7341;DHT22;6870;50.944;6.932;2023-04-25T03:29:18;20.00;35.20
7341;DHT22;6870;50.944;6.932;2023-04-25T03:31:51;20.10;35.20
7341;DHT22;6870;50.944;6.932;2023-04-25T03:34:19;19.90;35.10
7341;DHT22;6870;50.944;6.932;2023-04-25T03:36:49;20.30;35.30
7341;DHT22;6870;50.944;6.932;2023-04-25T03:39:17;20.40;35.50
7341;DHT22;6870;50.944;6.932;2023-04-25T03:41:45;19.90;35.00
7341;DHT22;6870;50.944;6.932;2023-04-25T03:44:13;20.00;35.30
7341;DHT22;6870;50.944;6.932;2023-04-25T03:46:42;20.10;35.30
7341;DHT22;6870;50.944;6.932;2023-04-25T03:49:10;20.10;35.30
7341;DHT22;6870;50.944;6.932;2023-04-25T03:51:38;20.10;35.10
7341;DHT22;6870;50.944;6.932;2023-04-25T03:54:08;20.10;35.30
7341;DHT22;6870;50.944;6.932;2023-04-25T03:56:36;20.40;35.60
7341;DHT22;6870;50.944;6.932;2023-04-25T03:59:04;20.20;35.60
7341;DHT22;6870;50.944;6.932;2023-04-25T04:01:32;20.20;35.60
7341;DHT22;6870;50.944;6.932;2023-04-25T04:04:00;20.20;35.50
7341;DHT22;6870;50.944;6.932;2023-04-25T04:06:29;20.30;35.50
7341;DHT22;6870;50.944;6.932;2023-04-25T04:08:57;20.20;35.70
7341;DHT22;6870;50.944;6.932;2023-04-25T04:11:27;19.80;35.00
7341;DHT22;6870;50.944;6.932;2023-04-25T04:13:55;20.30;35.60
7341;DHT22;6870;50.944;6.932;2023-04-25T04:16:25;20.20;35.30
7341;DHT22;6870;50.944;6.932;2023-04-25T04:18:53;20.10;35.30
7341;DHT22;6870;50.944;6.932;2023-04-25T04:21:24;20.30;35.40
7341;DHT22;6870;50.944;6.932;2023-04-25T04:23:53;20.20;35.40
7341;DHT22;6870;50.944;6.932;2023-04-25T04:26:22;20.10;35.20
7341;DHT22;6870;50.944;6.932;2023-04-25T04:28:52;20.10;35.00
7341;DHT22;6870;50.944;6.932;2023-04-25T04:31:22;20.20;36.20
7341;DHT22;6870;50.944;6.932;2023-04-25T04:33:50;20.20;35.50
7341;DHT22;6870;50.944;6.932;2023-04-25T04:36:25;20.00;35.40
7341;DHT22;6870;50.944;6.932;2023-04-25T04:38:53;20.20;35.60
7341;DHT22;6870;50.944;6.932;2023-04-25T04:41:23;20.20;35.60
7341;DHT22;6870;50.944;6.932;2023-04-25T04:43:52;20.20;35.60
7341;DHT22;6870;50.944;6.932;2023-04-25T04:46:22;20.10;35.20
7341;DHT22;6870;50.944;6.932;2023-04-25T04:48:51;20.00;35.50
7341;DHT22;6870;50.944;6.932;2023-04-25T04:51:23;20.40;35.70
7341;DHT22;6870;50.944;6.932;2023-04-25T04:53:51;20.10;35.20
7341;DHT22;6870;50.944;6.932;2023-04-25T04:56:19;19.90;33.70
7341;DHT22;6870;50.944;6.932;2023-04-25T04:58:51;20.30;33.00
7341;DHT22;6870;50.944;6.932;2023-04-25T05:01:20;19.90;31.90
7341;DHT22;6870;50.944;6.932;2023-04-25T05:03:48;19.90;31.30
7341;DHT22;6870;50.944;6.932;2023-04-25T05:06:19;20.10;30.90
7341;DHT22;6870;50.944;6.932;2023-04-25T05:08:47;19.80;30.10
7341;DHT22;6870;50.944;6.932;2023-04-25T05:11:15;20.20;31.00
7341;DHT22;6870;50.944;6.932;2023-04-25T05:13:43;20.20;30.80
7341;DHT22;6870;50.944;6.932;2023-04-25T05:16:13;20.20;30.70
7341;DHT22;6870;50.944;6.932;2023-04-25T05:18:42;20.20;31.10
7341;DHT22;6870;50.944;6.932;2023-04-25T05:21:10;20.20;31.00
7341;DHT22;6870;50.944;6.932;2023-04-25T05:23:38;20.10;31.20
7341;DHT22;6870;50.944;6.932;2023-04-25T05:26:06;20.30;31.60
7341;DHT22;6870;50.944;6.932;2023-04-25T05:28:40;20.50;31.50
7341;DHT22;6870;50.944;6.932;2023-04-25T05:31:09;20.00;31.10
7341;DHT22;6870;50.944;6.932;2023-04-25T05:33:39;20.10;31.30
7341;DHT22;6870;50.944;6.932;2023-04-25T05:36:08;20.60;31.80
7341;DHT22;6870;50.944;6.932;2023-04-25T05:38:36;20.30;31.50
7341;DHT22;6870;50.944;6.932;2023-04-25T05:41:05;20.30;31.50
7341;DHT22;6870;50.944;6.932;2023-04-25T05:43:34;20.20;31.50
7341;DHT22;6870;50.944;6.932;2023-04-25T05:46:02;20.30;31.50
7341;DHT22;6870;50.944;6.932;2023-04-25T05:48:30;20.20;31.50
7341;DHT22;6870;50.944;6.932;2023-04-25T05:51:00;20.50;31.70
7341;DHT22;6870;50.944;6.932;2023-04-25T05:53:28;20.20;31.40
7341;DHT22;6870;50.944;6.932;2023-04-25T05:55:56;20.20;31.30
7341;DHT22;6870;50.944;6.932;2023-04-25T05:58:24;20.20;31.30
7341;DHT22;6870;50.944;6.932;2023-04-25T06:00:52;20.20;31.20
7341;DHT22;6870;50.944;6.932;2023-04-25T06:03:21;20.20;31.20
7341;DHT22;6870;50.944;6.932;2023-04-25T06:05:50;20.30;31.20
7341;DHT22;6870;50.944;6.932;2023-04-25T06:08:19;20.40;31.20
7341;DHT22;6870;50.944;6.932;2023-04-25T06:10:47;20.30;31.10
7341;DHT22;6870;50.944;6.932;2023-04-25T06:13:15;20.20;31.00
7341;DHT22;6870;50.944;6.932;2023-04-25T06:15:44;20.70;31.30
7341;DHT22;6870;50.944;6.932;2023-04-25T06:18:12;20.30;30.70
7341;DHT22;6870;50.944;6.932;2023-04-25T06:20:41;20.40;30.80
7341;DHT22;6870;50.944;6.932;2023-04-25T06:23:09;20.60;30.80
7341;DHT22;6870;50.944;6.932;2023-04-25T06:25:39;20.40;30.50
7341;DHT22;6870;50.944;6.932;2023-04-25T06:28:07;20.50;30.30
7341;DHT22;6870;50.944;6.932;2023-04-25T06:30:35;20.60;30.50
7341;DHT22;6870;50.944;6.932;2023-04-25T06:33:03;20.50;30.30
7341;DHT22;6870;50.944;6.932;2023-04-25T06:35:34;20.70;30.50
7341;DHT22;6870;50.944;6.932;2023-04-25T06:38:02;20.40;30.20
7341;DHT22;6870;50.944;6.932;2023-04-25T06:40:31;20.60;30.50
7341;DHT22;6870;50.944;6.932;2023-04-25T06:43:00;20.30;30.20
7341;DHT22;6870;50.944;6.932;2023-04-25T06:45:28;20.40;30.20
7341;DHT22;6870;50.944;6.932;2023-04-25T06:47:56;20.50;30.20
7341;DHT22;6870;50.944;6.932;2023-04-25T06:50:27;20.50;30.30
7341;DHT22;6870;50.944;6.932;2023-04-25T06:53:25;20.70;30.50
7341;DHT22;6870;50.944;6.932;2023-04-25T06:55:59;20.50;30.30
7341;DHT22;6870;50.944;6.932;2023-04-25T06:58:34;21.00;30.40
7341;DHT22;6870;50.944;6.932;2023-04-25T07:01:10;20.70;29.70
7341;DHT22;6870;50.944;6.932;2023-04-25T07:03:38;21.10;30.00
7341;DHT22;6870;50.944;6.932;2023-04-25T07:06:06;21.00;29.70
7341;DHT22;6870;50.944;6.932;2023-04-25T07:08:34;20.90;29.60
7341;DHT22;6870;50.944;6.932;2023-04-25T07:11:03;21.30;30.20
7341;DHT22;6870;50.944;6.932;2023-04-25T07:13:32;21.30;30.10
7341;DHT22;6870;50.944;6.932;2023-04-25T07:16:01;21.30;29.80
7341;DHT22;6870;50.944;6.932;2023-04-25T07:18:29;21.30;29.80
7341;DHT22;6870;50.944;6.932;2023-04-25T07:20:57;21.30;29.80
7341;DHT22;6870;50.944;6.932;2023-04-25T07:23:25;21.20;29.80
7341;DHT22;6870;50.944;6.932;2023-04-25T07:25:54;21.20;30.00
7341;DHT22;6870;50.944;6.932;2023-04-25T07:28:22;21.20;30.00
7341;DHT22;6870;50.944;6.932;2023-04-25T07:30:51;21.00;29.60
7341;DHT22;6870;50.944;6.932;2023-04-25T07:33:19;21.00;29.70
7341;DHT22;6870;50.944;6.932;2023-04-25T07:35:48;21.20;29.80
7341;DHT22;6870;50.944;6.932;2023-04-25T07:38:16;21.30;30.10
7341;DHT22;6870;50.944;6.932;2023-04-25T07:40:44;21.20;23.40
7341;DHT22;6870;50.944;6.932;2023-04-25T07:43:12;19.90;19.10
7341;DHT22;6870;50.944;6.932;2023-04-25T07:45:43;19.50;18.70
7341;DHT22;6870;50.944;6.932;2023-04-25T07:48:16;18.70;17.80
7341;DHT22;6870;50.944;6.932;2023-04-25T07:50:44;18.90;25.80
7341;DHT22;6870;50.944;6.932;2023-04-25T07:53:13;19.80;25.50
7341;DHT22;6870;50.944;6.932;2023-04-25T07:55:41;20.40;24.50
7341;DHT22;6870;50.944;6.932;2023-04-25T07:58:09;20.70;24.20
7341;DHT22;6870;50.944;6.932;2023-04-25T08:00:38;21.30;24.40
7341;DHT22;6870;50.944;6.932;2023-04-25T08:03:06;21.40;24.40
7341;DHT22;6870;50.944;6.932;2023-04-25T08:05:36;21.40;24.40
7341;DHT22;6870;50.944;6.932;2023-04-25T08:08:04;21.30;24.50
7341;DHT22;6870;50.944;6.932;2023-04-25T08:10:33;21.40;24.70
7341;DHT22;6870;50.944;6.932;2023-04-25T08:13:01;21.50;24.80
7341;DHT22;6870;50.944;6.932;2023-04-25T08:15:29;21.50;24.90
7341;DHT22;6870;50.944;6.932;2023-04-25T08:17:57;21.60;25.00
7341;DHT22;6870;50.944;6.932;2023-04-25T08:20:26;21.70;25.20
7341;DHT22;6870;50.944;6.932;2023-04-25T08:22:55;21.60;25.20
7341;DHT22;6870;50.944;6.932;2023-04-25T08:25:24;21.60;25.30
7341;DHT22;6870;50.944;6.932;2023-04-25T08:27:51;21.50;25.10
7341;DHT22;6870;50.944;6.932;2023-04-25T08:30:20;21.70;25.30
7341;DHT22;6870;50.944;6.932;2023-04-25T08:32:48;22.00;25.50
7341;DHT22;6870;50.944;6.932;2023-04-25T08:35:16;21.70;25.40
7341;DHT22;6870;50.944;6.932;2023-04-25T08:37:45;21.60;25.40
7341;DHT22;6870;50.944;6.932;2023-04-25T08:40:15;21.50;25.10
7341;DHT22;6870;50.944;6.932;2023-04-25T08:42:43;22.00;25.60
7341;DHT22;6870;50.944;6.932;2023-04-25T08:45:12;21.70;25.20
7341;DHT22;6870;50.944;6.932;2023-04-25T08:47:40;21.90;25.50
7341;DHT22;6870;50.944;6.932;2023-04-25T08:50:08;21.70;25.30
7341;DHT22;6870;50.944;6.932;2023-04-25T08:52:40;22.20;25.60
7341;DHT22;6870;50.944;6.932;2023-04-25T08:55:14;22.00;25.40
7341;DHT22;6870;50.944;6.932;2023-04-25T08:57:44;22.20;24.80
7341;DHT22;6870;50.944;6.932;2023-04-25T09:00:13;22.20;25.40
7341;DHT22;6870;50.944;6.932;2023-04-25T09:02:42;22.40;25.50
7341;DHT22;6870;50.944;6.932;2023-04-25T09:05:12;22.20;25.00
7341;DHT22;6870;50.944;6.932;2023-04-25T09:07:41;22.20;25.60
7341;DHT22;6870;50.944;6.932;2023-04-25T09:10:09;21.90;25.40
7341;DHT22;6870;50.944;6.932;2023-04-25T09:12:39;22.20;25.40
7341;DHT22;6870;50.944;6.932;2023-04-25T09:15:08;21.80;25.20
7341;DHT22;6870;50.944;6.932;2023-04-25T09:17:38;22.10;25.20
7341;DHT22;6870;50.944;6.932;2023-04-25T09:20:13;22.30;25.80
7341;DHT22;6870;50.944;6.932;2023-04-25T09:22:41;22.10;25.70
7341;DHT22;6870;50.944;6.932;2023-04-25T09:25:11;22.10;25.90
7341;DHT22;6870;50.944;6.932;2023-04-25T09:27:52;21.70;25.70
7341;DHT22;6870;50.944;6.932;2023-04-25T09:30:29;21.60;25.70
7341;DHT22;6870;50.944;6.932;2023-04-25T09:33:04;22.00;26.00
7341;DHT22;6870;50.944;6.932;2023-04-25T09:35:37;21.90;26.00
7341;DHT22;6870;50.944;6.932;2023-04-25T09:38:08;21.60;25.70
7341;DHT22;6870;50.944;6.932;2023-04-25T09:40:41;21.80;25.80
7341;DHT22;6870;50.944;6.932;2023-04-25T09:43:20;21.80;25.60
7341;DHT22;6870;50.944;6.932;2023-04-25T09:45:49;21.90;25.70
7341;DHT22;6870;50.944;6.932;2023-04-25T09:48:18;22.10;26.00
7341;DHT22;6870;50.944;6.932;2023-04-25T09:51:04;21.80;25.90
7341;DHT22;6870;50.944;6.932;2023-04-25T09:53:37;22.00;26.10
7341;DHT22;6870;50.944;6.932;2023-04-25T09:56:07;21.60;25.90
7341;DHT22;6870;50.944;6.932;2023-04-25T09:58:39;21.60;25.80
7341;DHT22;6870;50.944;6.932;2023-04-25T10:01:09;22.20;26.10
7341;DHT22;6870;50.944;6.932;2023-04-25T10:03:39;22.30;25.90
7341;DHT22;6870;50.944;6.932;2023-04-25T10:06:11;21.90;25.60
7341;DHT22;6870;50.944;6.932;2023-04-25T10:08:43;22.00;25.80
7341;DHT22;6870;50.944;6.932;2023-04-25T10:11:12;22.00;26.00
7341;DHT22;6870;50.944;6.932;2023-04-25T10:13:44;21.60;25.70
7341;DHT22;6870;50.944;6.932;2023-04-25T10:16:14;21.60;25.90
7341;DHT22;6870;50.944;6.932;2023-04-25T10:18:43;21.80;26.20
7341;DHT22;6870;50.944;6.932;2023-04-25T10:21:12;21.90;25.90
7341;DHT22;6870;50.944;6.932;2023-04-25T10:23:42;21.80;26.40
7341;DHT22;6870;50.944;6.932;2023-04-25T10:26:12;21.60;26.40
7341;DHT22;6870;50.944;6.932;2023-04-25T10:28:56;21.40;26.30
7341;DHT22;6870;50.944;6.932;2023-04-25T10:31:25;21.70;26.50
7341;DHT22;6870;50.944;6.932;2023-04-25T10:33:53;21.60;26.40
7341;DHT22;6870;50.944;6.932;2023-04-25T10:36:22;21.90;26.60
7341;DHT22;6870;50.944;6.932;2023-04-25T10:38:52;21.60;26.20
7341;DHT22;6870;50.944;6.932;2023-04-25T10:41:21;22.10;26.40
7341;DHT22;6870;50.944;6.932;2023-04-25T10:44:00;22.20;26.20
7341;DHT22;6870;50.944;6.932;2023-04-25T10:46:29;22.30;24.80
7341;DHT22;6870;50.944;6.932;2023-04-25T10:48:59;22.60;24.60
7341;DHT22;6870;50.944;6.932;2023-04-25T10:51:30;22.50;25.10
7341;DHT22;6870;50.944;6.932;2023-04-25T10:54:18;22.60;25.10
7341;DHT22;6870;50.944;6.932;2023-04-25T10:56:48;22.50;25.10
7341;DHT22;6870;50.944;6.932;2023-04-25T10:59:19;22.40;25.00
7341;DHT22;6870;50.944;6.932;2023-04-25T11:01:51;22.00;24.90
7341;DHT22;6870;50.944;6.932;2023-04-25T11:04:22;22.10;25.30
7341;DHT22;6870;50.944;6.932;2023-04-25T11:07:02;22.00;25.60
7341;DHT22;6870;50.944;6.932;2023-04-25T11:09:37;22.10;26.00
7341;DHT22;6870;50.944;6.932;2023-04-25T11:12:08;22.10;26.10
7341;DHT22;6870;50.944;6.932;2023-04-25T11:14:40;22.30;26.40
7341;DHT22;6870;50.944;6.932;2023-04-25T11:17:08;22.20;26.40
7341;DHT22;6870;50.944;6.932;2023-04-25T11:19:37;22.20;26.50
7341;DHT22;6870;50.944;6.932;2023-04-25T11:22:05;22.20;26.60
7341;DHT22;6870;50.944;6.932;2023-04-25T11:24:35;22.00;26.50
7341;DHT22;6870;50.944;6.932;2023-04-25T11:27:04;21.80;26.50
7341;DHT22;6870;50.944;6.932;2023-04-25T11:29:34;21.90;26.60
7341;DHT22;6870;50.944;6.932;2023-04-25T11:32:04;22.00;26.60
7341;DHT22;6870;50.944;6.932;2023-04-25T11:34:33;22.20;26.70
7341;DHT22;6870;50.944;6.932;2023-04-25T11:37:02;22.20;26.60
7341;DHT22;6870;50.944;6.932;2023-04-25T11:39:30;22.50;26.60
7341;DHT22;6870;50.944;6.932;2023-04-25T11:41:59;22.60;26.50
7341;DHT22;6870;50.944;6.932;2023-04-25T11:44:30;22.50;26.30
7341;DHT22;6870;50.944;6.932;2023-04-25T11:46:58;23.00;25.80
7341;DHT22;6870;50.944;6.932;2023-04-25T11:49:31;23.00;24.90
7341;DHT22;6870;50.944;6.932;2023-04-25T11:51:59;23.30;25.80
7341;DHT22;6870;50.944;6.932;2023-04-25T11:54:27;22.80;25.50
7341;DHT22;6870;50.944;6.932;2023-04-25T11:56:55;23.20;25.50
7341;DHT22;6870;50.944;6.932;2023-04-25T11:59:25;23.20;25.30
7341;DHT22;6870;50.944;6.932;2023-04-25T12:01:54;23.30;25.10
7341;DHT22;6870;50.944;6.932;2023-04-25T12:04:24;23.80;25.90
7341;DHT22;6870;50.944;6.932;2023-04-25T12:06:55;23.80;24.20
7341;DHT22;6870;50.944;6.932;2023-04-25T12:09:28;23.60;24.50
7341;DHT22;6870;50.944;6.932;2023-04-25T12:11:59;23.90;24.20
7341;DHT22;6870;50.944;6.932;2023-04-25T12:14:31;24.10;24.70
7341;DHT22;6870;50.944;6.932;2023-04-25T12:17:02;24.10;24.50
7341;DHT22;6870;50.944;6.932;2023-04-25T12:19:35;24.00;24.50
7341;DHT22;6870;50.944;6.932;2023-04-25T12:22:20;24.10;24.70
7341;DHT22;6870;50.944;6.932;2023-04-25T12:24:49;24.00;24.40
7341;DHT22;6870;50.944;6.932;2023-04-25T12:27:19;24.20;24.40
7341;DHT22;6870;50.944;6.932;2023-04-25T12:29:51;24.20;24.50
7341;DHT22;6870;50.944;6.932;2023-04-25T12:32:20;24.30;24.50
7341;DHT22;6870;50.944;6.932;2023-04-25T12:34:48;24.30;24.60
7341;DHT22;6870;50.944;6.932;2023-04-25T12:37:17;24.30;24.50
7341;DHT22;6870;50.944;6.932;2023-04-25T12:39:45;23.80;24.10
7341;DHT22;6870;50.944;6.932;2023-04-25T12:42:13;23.70;24.40
7341;DHT22;6870;50.944;6.932;2023-04-25T12:44:41;23.40;25.20
7341;DHT22;6870;50.944;6.932;2023-04-25T12:47:09;23.80;25.70
7341;DHT22;6870;50.944;6.932;2023-04-25T12:49:37;23.00;15.00
7341;DHT22;6870;50.944;6.932;2023-04-25T12:52:05;22.60;10.80
7341;DHT22;6870;50.944;6.932;2023-04-25T12:54:35;22.00;11.20
7341;DHT22;6870;50.944;6.932;2023-04-25T12:57:03;21.90;10.60
7341;DHT22;6870;50.944;6.932;2023-04-25T12:59:31;21.60;9.80
7341;DHT22;6870;50.944;6.932;2023-04-25T13:01:59;21.30;9.70
7341;DHT22;6870;50.944;6.932;2023-04-25T13:04:27;21.20;11.70
7341;DHT22;6870;50.944;6.932;2023-04-25T13:06:55;21.70;13.80
7341;DHT22;6870;50.944;6.932;2023-04-25T13:09:23;22.00;13.20
7341;DHT22;6870;50.944;6.932;2023-04-25T13:11:53;22.60;13.70
7341;DHT22;6870;50.944;6.932;2023-04-25T13:14:24;22.60;13.70
7341;DHT22;6870;50.944;6.932;2023-04-25T13:16:52;22.90;13.70
7341;DHT22;6870;50.944;6.932;2023-04-25T13:19:21;23.20;14.80
7341;DHT22;6870;50.944;6.932;2023-04-25T13:21:49;23.10;14.90
7341;DHT22;6870;50.944;6.932;2023-04-25T13:24:17;22.90;15.10
7341;DHT22;6870;50.944;6.932;2023-04-25T13:26:45;23.20;16.10
7341;DHT22;6870;50.944;6.932;2023-04-25T13:29:15;23.00;16.20
7341;DHT22;6870;50.944;6.932;2023-04-25T13:31:43;23.30;16.80
7341;DHT22;6870;50.944;6.932;2023-04-25T13:34:11;23.40;16.50
7341;DHT22;6870;50.944;6.932;2023-04-25T13:36:39;23.80;17.20
7341;DHT22;6870;50.944;6.932;2023-04-25T13:39:07;23.90;17.30
7341;DHT22;6870;50.944;6.932;2023-04-25T13:41:35;23.80;17.30
7341;DHT22;6870;50.944;6.932;2023-04-25T13:44:04;24.00;17.90
7341;DHT22;6870;50.944;6.932;2023-04-25T13:46:33;23.80;18.30
7341;DHT22;6870;50.944;6.932;2023-04-25T13:49:13;23.70;19.10
7341;DHT22;6870;50.944;6.932;2023-04-25T13:51:42;23.70;17.60
7341;DHT22;6870;50.944;6.932;2023-04-25T13:54:10;23.00;12.40
7341;DHT22;6870;50.944;6.932;2023-04-25T13:56:38;22.80;12.40
7341;DHT22;6870;50.944;6.932;2023-04-25T13:59:08;22.70;11.50
7341;DHT22;6870;50.944;6.932;2023-04-25T14:01:38;22.50;10.10
7341;DHT22;6870;50.944;6.932;2023-04-25T14:04:06;22.90;12.00
7341;DHT22;6870;50.944;6.932;2023-04-25T14:06:34;22.90;12.30
7341;DHT22;6870;50.944;6.932;2023-04-25T14:09:03;23.40;13.20
7341;DHT22;6870;50.944;6.932;2023-04-25T14:11:33;23.10;16.20
7341;DHT22;6870;50.944;6.932;2023-04-25T14:14:01;23.20;17.00
7341;DHT22;6870;50.944;6.932;2023-04-25T14:16:29;23.00;17.50
7341;DHT22;6870;50.944;6.932;2023-04-25T14:19:00;23.00;18.20
7341;DHT22;6870;50.944;6.932;2023-04-25T14:21:29;23.00;18.40
7341;DHT22;6870;50.944;6.932;2023-04-25T14:23:59;23.30;18.70
7341;DHT22;6870;50.944;6.932;2023-04-25T14:26:27;23.20;18.70
7341;DHT22;6870;50.944;6.932;2023-04-25T14:28:55;23.00;19.10
7341;DHT22;6870;50.944;6.932;2023-04-25T14:31:23;23.10;19.60
7341;DHT22;6870;50.944;6.932;2023-04-25T14:33:51;22.90;19.90
7341;DHT22;6870;50.944;6.932;2023-04-25T14:36:24;23.10;19.80
7341;DHT22;6870;50.944;6.932;2023-04-25T14:38:53;23.30;19.90
7341;DHT22;6870;50.944;6.932;2023-04-25T14:41:21;23.50;20.00
7341;DHT22;6870;50.944;6.932;2023-04-25T14:43:49;23.60;19.90
7341;DHT22;6870;50.944;6.932;2023-04-25T14:46:18;23.50;19.70
7341;DHT22;6870;50.944;6.932;2023-04-25T14:48:47;23.80;20.00
7341;DHT22;6870;50.944;6.932;2023-04-25T14:51:15;23.60;19.90
7341;DHT22;6870;50.944;6.932;2023-04-25T14:53:44;23.50;19.80
7341;DHT22;6870;50.944;6.932;2023-04-25T14:56:12;23.40;20.00
7341;DHT22;6870;50.944;6.932;2023-04-25T14:58:40;23.80;20.50
7341;DHT22;6870;50.944;6.932;2023-04-25T15:01:09;23.50;20.20
7341;DHT22;6870;50.944;6.932;2023-04-25T15:03:38;23.70;20.60
7341;DHT22;6870;50.944;6.932;2023-04-25T15:06:06;23.60;20.60
7341;DHT22;6870;50.944;6.932;2023-04-25T15:08:34;23.70;20.70
7341;DHT22;6870;50.944;6.932;2023-04-25T15:11:04;23.70;20.50
7341;DHT22;6870;50.944;6.932;2023-04-25T15:13:32;23.80;20.80
7341;DHT22;6870;50.944;6.932;2023-04-25T15:16:01;23.90;20.90
7341;DHT22;6870;50.944;6.932;2023-04-25T15:18:29;23.80;20.80
7341;DHT22;6870;50.944;6.932;2023-04-25T15:20:57;23.70;20.70
7341;DHT22;6870;50.944;6.932;2023-04-25T15:23:25;23.90;20.90
7341;DHT22;6870;50.944;6.932;2023-04-25T15:25:55;23.90;21.00
7341;DHT22;6870;50.944;6.932;2023-04-25T15:28:25;23.60;20.90
7341;DHT22;6870;50.944;6.932;2023-04-25T15:30:53;23.80;20.90
7341;DHT22;6870;50.944;6.932;2023-04-25T15:33:21;24.10;21.00
7341;DHT22;6870;50.944;6.932;2023-04-25T15:35:49;24.00;21.40
7341;DHT22;6870;50.944;6.932;2023-04-25T15:38:17;23.90;21.40
7341;DHT22;6870;50.944;6.932;2023-04-25T15:40:45;24.00;21.60
7341;DHT22;6870;50.944;6.932;2023-04-25T15:43:13;23.90;21.40
7341;DHT22;6870;50.944;6.932;2023-04-25T15:45:44;23.60;21.20
7341;DHT22;6870;50.944;6.932;2023-04-25T15:48:12;23.40;21.30
7341;DHT22;6870;50.944;6.932;2023-04-25T15:50:40;23.70;21.90
7341;DHT22;6870;50.944;6.932;2023-04-25T15:53:09;23.80;22.10
7341;DHT22;6870;50.944;6.932;2023-04-25T15:55:37;23.40;21.50
7341;DHT22;6870;50.944;6.932;2023-04-25T15:58:05;23.90;22.40
7341;DHT22;6870;50.944;6.932;2023-04-25T16:00:34;23.60;22.10
7341;DHT22;6870;50.944;6.932;2023-04-25T16:03:04;23.30;22.40
7341;DHT22;6870;50.944;6.932;2023-04-25T16:05:33;23.30;22.50
7341;DHT22;6870;50.944;6.932;2023-04-25T16:08:01;23.60;22.70
7341;DHT22;6870;50.944;6.932;2023-04-25T16:10:31;23.30;22.50
7341;DHT22;6870;50.944;6.932;2023-04-25T16:12:59;23.60;22.80
7341;DHT22;6870;50.944;6.932;2023-04-25T16:15:28;23.40;22.80